首页
METAR-TAF:

METAR-TAF

机场 :

St. Anthony, 紐芬蘭-拉布拉多, 加拿大

纬度: 51-24N, 经度: 056-05W, 海拔: 28米

当前天气观测

该预报发布于1小时和23分钟前的15:00 UTC
风速13节,风向东转东南
温度 17°C
湿度 68%
气压 1000 hPa
能見度: 14.5公里
多云层高于8600英尺

METAR: CYAY 241500Z AUTO 12013KT 9SM BKN086 17/11 A2954 RMK SLP007 DENSITY ALT 900FT

时间: 13:53 (16:23 UTC)

预报

该预报发布于2小时和43分钟前的13:40 UTC
预报有效从24日的 14点(UTC)到 25日的 02点(UTC)
风速5节,风向东北
能見度: 10公里
少量云层高于1500英尺
多云层高于16000英尺
成为
从 24日的 16点(UTC)到 24日的 18点(UTC)
风速12节,风向东南
散云层高于16000英尺

TAF: CYAY 241340Z 2414/2502 04005KT P6SM FEW015 BKN160 BECMG 2416/2418 13012KT SCT160 RMK FCST BASED ON AUTO OBS. NXT FCST BY 242000Z

超过4000个机场的气象观测和天气预报(METAR&TAF报告)。

可查询的气象台以黄色和红色小点在地图上表示。

将鼠标移到小点上方,可查看气象台名称。

然后点击查看天气观测和预报。

如需切换地图:点击带黑十字的绿色按钮放大地图;点击带横线的绿色按钮缩小地图;或者点击绿色箭头查看邻近地区的地图。


METAR-TAF: